Time;durP1;ratioP1;P1;durP2;ratioP2;P2;SDS_P1;SDS_P2;PMS_P1;PMS_P2;Temp;Humidity;BMP_temperature;BMP_pressure;BME280_temperature;BME280_humidity;BME280_pressure;Samples;Min_cycle;Max_cycle;Signal;HPM_P1;HPM_P2
2022/10/01 00:00:10;;;;;;;7.93;2.57;;;;;;;-143.84;46.55;45052.88;5069198;28;20439;-74
2022/10/01 00:02:38;;;;;;;2.70;2.50;;;;;;;-143.84;46.43;45056.69;5069495;28;21016;-75
2022/10/01 00:05:06;;;;;;;5.23;2.43;;;;;;;-143.84;46.78;45045.25;5069305;28;20785;-75
2022/10/01 00:07:38;;;;;;;3.20;2.90;;;;;;;-143.84;46.41;45045.25;5070611;28;20770;-72
2022/10/01 00:10:06;;;;;;;3.10;2.90;;;;;;;-143.84;46.25;45039.53;5070349;28;20437;-72
2022/10/01 00:12:33;;;;;;;3.30;2.67;;;;;;;-143.84;46.22;45054.78;5070706;28;20514;-72
2022/10/01 00:15:01;;;;;;;6.63;3.00;;;;;;;-143.84;46.29;45028.13;5094529;28;20439;-71
2022/10/01 00:17:30;;;;;;;3.07;2.53;;;;;;;-143.84;46.34;45022.41;5078558;28;21334;-72
2022/10/01 00:19:57;;;;;;;5.93;2.80;;;;;;;-143.84;45.82;45035.75;5103380;28;20457;-71
2022/10/01 00:22:24;;;;;;;10.60;2.70;;;;;;;-143.84;46.00;45031.94;5083837;28;21014;-72
2022/10/01 00:24:51;;;;;;;4.17;2.90;;;;;;;-143.84;45.88;45005.28;5094415;28;20462;-71
2022/10/01 00:27:18;;;;;;;2.40;2.30;;;;;;;-143.84;46.02;45028.13;5069888;28;20501;-71
2022/10/01 00:29:45;;;;;;;7.13;2.87;;;;;;;-143.84;46.07;45033.84;5069670;28;20445;-72
2022/10/01 00:32:13;;;;;;;4.40;2.47;;;;;;;-143.84;45.75;45043.34;5069405;28;21028;-71
2022/10/01 00:34:41;;;;;;;9.03;2.70;;;;;;;-143.84;45.72;45030.03;5069968;28;20440;-71
2022/10/01 00:37:09;;;;;;;8.80;2.40;;;;;;;-143.84;45.75;45010.97;5069568;28;20445;-71
2022/10/01 00:39:36;;;;;;;3.67;2.50;;;;;;;-143.84;46.06;45068.13;5069490;28;20455;-71
2022/10/01 00:42:06;;;;;;;2.67;2.47;;;;;;;-143.84;45.35;45030.03;5069690;28;20524;-72
2022/10/01 00:44:35;;;;;;;3.30;2.80;;;;;;;-143.84;45.25;45062.41;5069562;28;20480;-71
2022/10/01 00:47:09;;;;;;;3.00;2.70;;;;;;;-143.84;45.81;45039.53;5069527;28;20868;-72
2022/10/01 00:49:38;;;;;;;6.43;3.50;;;;;;;-143.84;45.43;45045.25;5069569;28;20447;-71
2022/10/01 00:52:12;;;;;;;3.53;2.53;;;;;;;-143.84;45.75;45047.16;5069285;28;20480;-71
2022/10/01 00:54:44;;;;;;;6.43;2.10;;;;;;;-143.84;45.88;45035.75;5102366;28;20801;-71
2022/10/01 00:57:15;;;;;;;11.33;3.27;;;;;;;-143.84;45.27;45033.84;5098199;28;20498;-72
2022/10/01 00:59:44;;;;;;;4.27;2.10;;;;;;;-143.84;45.66;45018.59;5089684;28;20439;-71
2022/10/01 01:02:11;;;;;;;3.30;3.00;;;;;;;-143.84;45.39;45033.84;5081615;28;20490;-72
2022/10/01 01:04:39;;;;;;;3.73;2.33;;;;;;;-143.84;45.35;45041.44;5102561;28;20442;-72
2022/10/01 01:07:09;;;;;;;5.10;2.80;;;;;;;-143.84;44.96;45030.03;5069332;28;20519;-72
2022/10/01 01:09:39;;;;;;;3.47;2.40;;;;;;;-143.84;45.15;45050.97;5069260;28;20453;-71
2022/10/01 01:12:17;;;;;;;5.93;3.00;;;;;;;-143.84;44.92;45033.84;5068600;28;20507;-71
2022/10/01 01:14:53;;;;;;;6.00;2.37;;;;;;;-143.84;45.04;45026.22;5069000;28;20795;-71
2022/10/01 01:17:26;;;;;;;2.73;2.27;;;;;;;-143.84;45.14;45049.06;5069144;28;20448;-71
2022/10/01 01:20:10;;;;;;;3.53;2.33;;;;;;;-143.84;45.35;45087.16;5087655;28;20435;-71
2022/10/01 01:22:48;;;;;;;11.30;3.07;;;;;;;-143.84;45.04;45041.44;5109547;28;20602;-71
2022/10/01 01:25:19;;;;;;;3.47;3.17;;;;;;;-143.84;44.93;45041.44;5109525;28;20442;-71
2022/10/01 01:27:53;;;;;;;7.53;2.63;;;;;;;-143.84;45.39;45035.75;5109541;28;20876;-71
2022/10/01 01:30:22;;;;;;;7.60;2.87;;;;;;;-143.84;45.42;45028.13;5109202;28;20438;-71
2022/10/01 01:32:54;;;;;;;4.83;3.00;;;;;;;-143.84;45.69;45054.78;5109523;28;20447;-71
2022/10/01 01:35:30;;;;;;;7.50;2.20;;;;;;;-143.84;45.57;45024.31;5109765;28;20439;-72
2022/10/01 01:38:02;;;;;;;3.50;2.20;;;;;;;-143.84;45.31;45028.13;5109686;28;20462;-71
2022/10/01 01:40:33;;;;;;;3.80;2.50;;;;;;;-143.84;45.11;45050.97;5077218;28;20445;-72
2022/10/01 01:43:02;;;;;;;2.97;2.67;;;;;;;-143.84;45.42;45068.13;5068418;28;21014;-71
2022/10/01 01:45:32;;;;;;;5.13;2.80;;;;;;;-143.84;45.27;45018.59;5068533;28;20481;-71
2022/10/01 01:48:01;;;;;;;8.43;2.70;;;;;;;-143.84;45.10;45047.16;5068900;28;20452;-71
2022/10/01 01:50:32;;;;;;;5.83;2.37;;;;;;;-143.84;44.86;45062.41;5068753;28;20923;-71
2022/10/01 01:53:01;;;;;;;8.00;2.20;;;;;;;-143.84;45.67;45047.16;5068882;28;20455;-72
2022/10/01 01:55:29;;;;;;;7.17;2.40;;;;;;;-143.84;45.73;45028.13;5068616;28;21348;-72
2022/10/01 01:57:57;;;;;;;4.03;2.40;;;;;;;-143.84;46.61;45031.94;5078418;28;20444;-72
2022/10/01 02:00:24;;;;;;;2.53;2.27;;;;;;;-143.84;46.13;45039.53;5088676;28;20949;-72
2022/10/01 02:02:55;;;;;;;7.07;2.73;;;;;;;-143.84;46.47;45052.88;5071662;28;20848;-71
2022/10/01 02:05:26;;;;;;;3.63;2.70;;;;;;;-143.84;47.23;45064.31;5067835;28;20536;-72
2022/10/01 02:08:25;;;;;;;10.10;3.00;;;;;;;-143.84;47.42;45068.13;5068644;28;20490;-72
2022/10/01 02:11:10;;;;;;;3.50;2.30;;;;;;;-143.84;47.66;45054.78;5067760;28;20466;-72
2022/10/01 02:13:47;;;;;;;4.63;2.40;;;;;;;-143.84;48.06;45062.41;5067823;28;20441;-71
2022/10/01 02:16:22;;;;;;;2.47;2.27;;;;;;;-143.84;48.52;45035.75;5082361;28;21106;-76
2022/10/01 02:18:58;;;;;;;7.40;2.53;;;;;;;-143.84;48.51;45070.00;5086496;28;20444;-76
2022/10/01 02:21:31;;;;;;;4.53;2.50;;;;;;;-143.84;48.31;45045.25;5102895;28;20984;-76
2022/10/01 02:24:04;;;;;;;9.03;2.37;;;;;;;-143.84;48.30;45037.66;5075916;28;20531;-76
2022/10/01 02:26:36;;;;;;;4.13;3.07;;;;;;;-143.84;48.73;45047.16;5093335;28;20507;-76
2022/10/01 02:29:07;;;;;;;4.93;2.40;;;;;;;-143.84;49.21;45045.25;5106279;28;20509;-76
2022/10/01 02:31:35;;;;;;;2.30;2.10;;;;;;;-143.84;48.71;45062.41;5114535;28;20471;-76
2022/10/01 02:34:07;;;;;;;11.43;3.03;;;;;;;-143.84;49.22;45070.00;5114494;28;20431;-76
2022/10/01 02:36:37;;;;;;;3.93;2.60;;;;;;;-143.84;49.46;45050.97;5114178;28;20488;-76
2022/10/01 02:39:06;;;;;;;4.23;3.17;;;;;;;-143.84;49.81;45056.69;5114197;28;20458;-77
2022/10/01 02:41:36;;;;;;;3.50;2.47;;;;;;;-143.84;49.80;45035.75;5107157;28;20493;-77
2022/10/01 02:44:07;;;;;;;5.97;3.20;;;;;;;-143.84;50.28;45041.44;5093604;28;20508;-77
2022/10/01 02:46:41;;;;;;;4.20;2.50;;;;;;;-143.84;49.88;45052.88;5092763;28;20447;-77
2022/10/01 02:49:12;;;;;;;2.50;2.30;;;;;;;-143.84;49.88;45047.16;5081724;28;20499;-77
2022/10/01 02:51:48;;;;;;;6.33;2.67;;;;;;;-143.84;50.24;45054.78;5070669;28;20483;-77
2022/10/01 02:54:22;;;;;;;5.73;2.97;;;;;;;-143.84;50.62;45052.88;5072892;28;20448;-77
2022/10/01 02:59:32;;;;;;;14.10;6.40;;;;;;;-143.84;50.63;45047.16;5059920;28;20451;-77
2022/10/01 03:01:59;;;;;;;5.10;4.33;;;;;;;-143.84;50.62;45043.34;5072903;28;20958;-77
2022/10/01 03:04:27;;;;;;;9.27;4.70;;;;;;;-143.84;50.63;45045.25;5113478;28;20492;-77
2022/10/01 03:06:54;;;;;;;18.53;6.40;;;;;;;-143.84;50.25;45068.13;5113579;28;20495;-77
2022/10/01 03:09:21;;;;;;;8.13;5.10;;;;;;;-143.84;50.48;45049.06;5113505;28;20479;-77
2022/10/01 03:11:48;;;;;;;11.90;7.70;;;;;;;-143.84;50.39;45022.41;5113179;28;20505;-77
2022/10/01 03:14:16;;;;;;;10.63;5.90;;;;;;;-143.84;50.31;45049.06;5113213;28;21026;-77
2022/10/01 03:16:43;;;;;;;5.87;5.37;;;;;;;-143.84;50.67;45064.31;5113289;28;20423;-77
2022/10/01 03:19:10;;;;;;;5.93;5.43;;;;;;;-143.84;51.30;45037.66;5113176;28;20435;-77
2022/10/01 03:21:39;;;;;;;4.83;4.10;;;;;;;-143.84;51.42;45047.16;5113332;28;20443;-77
2022/10/01 03:24:06;;;;;;;5.83;3.83;;;;;;;-143.84;51.34;45070.00;5104948;28;20486;-77
2022/10/01 03:26:33;;;;;;;9.03;3.47;;;;;;;-143.84;51.10;45056.69;5072807;28;20902;-77
2022/10/01 03:29:00;;;;;;;12.20;3.47;;;;;;;-143.84;50.74;45049.06;5073180;28;20813;-77
2022/10/01 03:31:28;;;;;;;5.00;3.80;;;;;;;-143.84;50.78;45062.41;5072370;28;20481;-77
2022/10/01 03:33:59;;;;;;;4.97;4.03;;;;;;;-143.84;50.76;45070.00;5071932;28;20444;-77
2022/10/01 03:36:26;;;;;;;10.30;6.13;;;;;;;-143.84;50.72;45079.53;5072474;28;20449;-77
2022/10/01 03:38:55;;;;;;;14.77;5.93;;;;;;;-143.84;50.88;45033.84;5080722;28;20457;-77
2022/10/01 03:41:23;;;;;;;6.23;5.00;;;;;;;-143.84;51.09;45062.41;5112650;28;20500;-77
2022/10/01 03:43:50;;;;;;;9.70;4.73;;;;;;;-143.84;51.81;45096.66;5112891;28;20478;-76
2022/10/01 03:46:17;;;;;;;4.90;4.50;;;;;;;-143.84;51.75;45047.16;5113347;28;20455;-76
2022/10/01 03:48:44;;;;;;;15.03;4.07;;;;;;;-143.84;51.89;45037.66;5113139;28;20514;-76
2022/10/01 03:51:11;;;;;;;9.47;4.27;;;;;;;-143.84;51.73;45068.13;5113577;28;20933;-76
2022/10/01 03:53:39;;;;;;;7.50;4.37;;;;;;;-143.84;52.61;45060.50;5113070;28;20447;-77
2022/10/01 03:56:08;;;;;;;5.43;3.47;;;;;;;-143.84;52.53;45066.22;5112306;28;20427;-77
2022/10/01 03:58:36;;;;;;;10.63;3.43;;;;;;;-143.84;52.47;45056.69;5112437;28;20431;-76
2022/10/01 04:01:03;;;;;;;14.67;3.83;;;;;;;-143.84;52.22;45035.75;5111944;28;20438;-76
2022/10/01 04:03:30;;;;;;;8.73;3.10;;;;;;;-143.84;51.70;45050.97;5110969;28;20450;-76
2022/10/01 04:05:58;;;;;;;3.07;2.80;;;;;;;-143.84;51.85;45056.69;5071722;28;20437;-77
2022/10/01 04:08:25;;;;;;;4.93;3.20;;;;;;;-143.84;52.65;45079.53;5071536;28;20918;-77
2022/10/01 04:10:53;;;;;;;3.87;2.40;;;;;;;-143.84;52.79;45041.44;5071467;28;20437;-77
2022/10/01 04:13:21;;;;;;;6.20;3.23;;;;;;;-143.84;52.18;45052.88;5071788;28;20546;-77
2022/10/01 04:15:48;;;;;;;7.93;3.07;;;;;;;-143.84;50.82;45047.16;5071476;28;20448;-75
2022/10/01 04:18:16;;;;;;;8.57;3.40;;;;;;;-143.84;50.98;45054.78;5072139;28;20436;-75
2022/10/01 04:20:43;;;;;;;7.90;3.03;;;;;;;-143.84;51.12;45037.66;5071662;28;20436;-75
2022/10/01 04:23:10;;;;;;;3.03;2.73;;;;;;;-143.84;50.87;45068.13;5072198;28;20448;-75
2022/10/01 04:25:37;;;;;;;7.07;3.77;;;;;;;-143.84;51.47;45045.25;5071110;28;20448;-75
2022/10/01 04:28:06;;;;;;;9.27;3.57;;;;;;;-143.84;52.55;45068.13;5071261;28;20452;-75
2022/10/01 04:30:37;;;;;;;4.67;2.90;;;;;;;-143.84;52.68;45071.91;5071350;28;20425;-75
2022/10/01 04:33:05;;;;;;;8.27;2.90;;;;;;;-143.84;50.65;45064.31;5070597;28;20526;-77
2022/10/01 04:35:32;;;;;;;12.57;2.60;;;;;;;-143.84;51.03;45037.66;5071182;28;20436;-77
2022/10/01 04:38:02;;;;;;;3.33;2.80;;;;;;;-143.84;49.81;45054.78;5109345;28;20462;-77
2022/10/01 04:40:34;;;;;;;8.10;3.00;;;;;;;-143.84;49.46;45049.06;5092459;28;20483;-75
2022/10/01 04:43:01;;;;;;;4.77;2.83;;;;;;;-143.84;50.56;45058.59;5092910;28;20449;-76
2022/10/01 04:45:28;;;;;;;10.73;3.10;;;;;;;-143.84;52.24;45060.50;5093646;28;20479;-76
2022/10/01 04:47:57;;;;;;;2.60;2.40;;;;;;;-143.84;52.18;45041.44;5091020;28;20456;-76
2022/10/01 04:50:26;;;;;;;2.33;2.13;;;;;;;-143.84;49.99;45050.97;5091175;28;20501;-76
2022/10/01 04:52:53;;;;;;;7.13;3.87;;;;;;;-143.84;50.50;45064.31;5088009;28;20479;-76
2022/10/01 04:55:21;;;;;;;3.00;2.80;;;;;;;-143.84;52.41;45041.44;5091097;28;20443;-76
2022/10/01 04:57:49;;;;;;;8.10;3.50;;;;;;;-143.84;51.10;45045.25;5090876;28;20440;-76
2022/10/01 05:00:19;;;;;;;4.97;3.20;;;;;;;-143.84;51.41;45037.66;5091339;28;20439;-76
2022/10/01 05:03:14;;;;;;;6.53;3.30;;;;;;;-143.84;53.44;45030.03;5090613;28;20448;-76
2022/10/01 05:09:45;;;;;;;7.60;3.77;;;;;;;-143.84;52.72;45037.66;5090901;28;20404;-75
2022/10/01 05:12:54;;;;;;;3.40;3.17;;;;;;;-143.84;52.10;45018.59;5075316;28;20488;-76
2022/10/01 05:18:48;;;;;;;4.50;3.87;;;;;;;-143.84;53.33;45022.41;5060208;28;20535;-78
2022/10/01 05:21:43;;;;;;;3.43;3.07;;;;;;;-143.84;50.79;45041.44;5048782;28;20441;-77
2022/10/01 05:27:23;;;;;;;;;;;;;;;;;;;;;
2022/10/01 05:30:30;;;;;;;11.77;3.40;;;;;;;-143.84;43.28;44991.94;5049869;28;20447;-75
2022/10/01 05:50:02;;;;;;;3.03;2.20;;;;;;;-143.84;41.17;44965.28;5189737;22;20489;-75
2022/10/01 05:58:12;;;;;;;29.50;12.57;;;;;;;-143.84;38.35;44969.09;5997204;22;20494;-74
2022/10/01 06:12:20;;;;;;;4.00;3.70;;;;;;;-143.84;35.33;44925.31;5415199;22;20493;-75
2022/10/01 06:15:15;;;;;;;3.73;2.73;;;;;;;-143.84;34.41;44925.31;5011033;28;20953;-73
2022/10/01 06:20:40;;;;;;;9.03;2.77;;;;;;;-143.84;34.48;44919.59;5684329;22;20563;-75
2022/10/01 06:23:44;;;;;;;10.50;3.13;;;;;;;-143.84;33.99;44946.25;5030449;28;20465;-74
2022/10/01 06:45:48;;;;;;;2.10;1.90;;;;;;;-143.84;32.08;44908.16;5045337;23;20478;-73
2022/10/01 06:48:42;;;;;;;2.63;2.43;;;;;;;-143.84;31.76;44894.84;5030021;28;20438;-74
2022/10/01 07:05:07;;;;;;;9.00;5.70;;;;;;;-143.84;30.92;44851.03;4974252;26;20470;-74
2022/10/01 07:07:57;;;;;;;14.30;2.87;;;;;;;-143.84;30.56;44856.75;4990587;28;20436;-74
2022/10/01 07:34:53;;;;;;;3.40;3.20;;;;;;;-143.84;30.61;44866.28;5404173;22;20505;-74
2022/10/01 07:37:52;;;;;;;4.30;3.33;;;;;;;-143.84;29.75;44852.94;5029324;28;20589;-74
2022/10/01 07:40:43;;;;;;;4.70;2.73;;;;;;;-143.84;30.45;44854.84;5029484;28;20443;-74
2022/10/01 07:43:26;;;;;;;3.60;2.27;;;;;;;-143.84;30.27;44868.19;5028706;28;20454;-73
2022/10/01 07:46:38;;;;;;;5.90;2.80;;;;;;;-143.84;30.29;44866.28;5028986;28;20999;-73
2022/10/01 07:49:20;;;;;;;4.23;2.13;;;;;;;-143.84;30.10;44871.97;5028881;28;20553;-73
2022/10/01 07:52:17;;;;;;;10.83;2.50;;;;;;;-143.84;30.14;44875.78;5012773;28;20448;-74
2022/10/01 07:55:13;;;;;;;5.43;2.57;;;;;;;-143.84;31.49;44879.59;5010893;28;20452;-74
2022/10/01 07:58:14;;;;;;;8.60;2.87;;;;;;;-143.84;30.08;44864.38;5009361;28;20455;-74
2022/10/01 08:00:59;;;;;;;9.23;2.03;;;;;;;-143.84;30.50;44866.28;5008264;28;20455;-74
2022/10/01 08:03:47;;;;;;;5.50;2.23;;;;;;;-143.84;30.86;44881.50;5008900;28;20534;-74
2022/10/01 08:15:12;;;;;;;2.10;1.90;;;;;;;-143.84;30.03;44885.31;5009526;28;20443;-72
2022/10/01 08:17:39;;;;;;;2.27;1.80;;;;;;;-143.84;30.25;44858.66;5009762;28;20472;-73
2022/10/01 08:20:09;;;;;;;5.17;2.03;;;;;;;-143.84;29.86;44845.31;5013399;28;20448;-75
2022/10/01 08:22:36;;;;;;;3.80;2.20;;;;;;;-143.84;30.22;44845.31;5009400;28;20999;-75
2022/10/01 08:25:04;;;;;;;5.37;2.00;;;;;;;-143.84;29.35;44854.84;5014118;28;20458;-73
2022/10/01 08:27:31;;;;;;;5.07;2.30;;;;;;;-143.84;29.57;44837.72;5018472;28;20454;-73
2022/10/01 08:29:58;;;;;;;6.13;2.60;;;;;;;-143.84;30.01;44843.44;5013285;28;20440;-74
2022/10/01 08:32:29;;;;;;;2.03;1.90;;;;;;;-143.84;30.44;44847.22;5010537;28;20526;-73
2022/10/01 08:34:56;;;;;;;6.03;3.10;;;;;;;-143.84;31.46;44837.72;5009673;28;20479;-73
2022/10/01 08:37:26;;;;;;;3.73;2.73;;;;;;;-143.84;31.29;44870.09;5009525;28;20506;-73
2022/10/01 08:39:54;;;;;;;10.87;2.73;;;;;;;-143.84;32.22;44885.31;5008322;28;20531;-73
2022/10/01 08:42:38;;;;;;;6.63;3.00;;;;;;;-143.84;32.09;44866.28;5010954;28;20800;-73
2022/10/01 08:45:12;;;;;;;8.13;3.27;;;;;;;-143.84;32.04;44877.69;5007630;28;20459;-73
2022/10/01 08:47:48;;;;;;;5.80;2.73;;;;;;;-143.84;32.26;44854.84;5007938;28;20458;-73
2022/10/01 08:50:27;;;;;;;4.70;2.60;;;;;;;-143.84;32.20;44875.78;5012895;28;21170;-73
2022/10/01 08:53:00;;;;;;;10.17;2.50;;;;;;;-143.84;31.51;44881.50;5009798;28;20890;-73
2022/10/01 08:55:35;;;;;;;9.57;2.53;;;;;;;-143.84;31.54;44894.84;5009040;28;20455;-74
2022/10/01 08:58:04;;;;;;;2.80;2.60;;;;;;;-143.84;31.51;44896.75;5008654;28;20482;-73
2022/10/01 09:00:33;;;;;;;8.23;2.80;;;;;;;-143.84;31.96;44854.84;5011672;28;20448;-76
2022/10/01 09:03:07;;;;;;;6.90;2.20;;;;;;;-143.84;30.65;44858.66;5011638;28;20450;-73
2022/10/01 09:05:47;;;;;;;6.80;2.50;;;;;;;-143.84;30.52;44847.22;5010752;28;20451;-74
2022/10/01 09:08:42;;;;;;;2.73;2.13;;;;;;;-143.84;30.29;44847.22;5008813;28;20454;-73
2022/10/01 09:11:22;;;;;;;4.23;2.23;;;;;;;-143.84;30.77;44858.66;5008654;28;21300;-73
2022/10/01 09:14:03;;;;;;;5.40;2.23;;;;;;;-143.84;29.76;44873.88;5008187;28;20487;-73
2022/10/01 09:16:35;;;;;;;6.07;2.30;;;;;;;-143.84;30.42;44877.69;5008829;28;20439;-73
2022/10/01 09:19:17;;;;;;;4.93;2.13;;;;;;;-143.84;30.33;44877.69;5016516;28;20438;-73
2022/10/01 09:21:55;;;;;;;9.50;5.40;;;;;;;-143.84;31.01;44862.47;5016250;28;20451;-75
2022/10/01 09:24:41;;;;;;;8.10;2.83;;;;;;;-143.84;30.64;44868.19;5015645;28;21034;-74
2022/10/01 09:27:14;;;;;;;3.97;2.73;;;;;;;-143.84;31.24;44866.28;5008581;28;20455;-72
2022/10/01 09:29:49;;;;;;;8.93;2.90;;;;;;;-143.84;30.98;44868.19;5016803;28;20949;-75
2022/10/01 09:32:20;;;;;;;6.30;2.70;;;;;;;-143.84;32.24;44873.88;5008857;28;20447;-75
2022/10/01 09:34:50;;;;;;;3.90;2.33;;;;;;;-143.84;31.28;44894.84;5009913;28;20475;-75
2022/10/01 09:37:28;;;;;;;2.60;2.40;;;;;;;-143.84;31.82;44873.88;5010788;28;20483;-73
2022/10/01 09:40:07;;;;;;;5.87;2.80;;;;;;;-143.84;31.97;44862.47;5028592;28;20450;-75
2022/10/01 09:42:34;;;;;;;6.87;2.73;;;;;;;-143.84;32.23;44875.78;5031181;28;20513;-75
2022/10/01 09:45:02;;;;;;;6.90;2.57;;;;;;;-143.84;32.45;44877.69;5031047;28;20435;-75
2022/10/01 09:47:32;;;;;;;5.13;2.90;;;;;;;-143.84;32.12;44841.53;5030836;28;20438;-75
2022/10/01 09:50:06;;;;;;;4.47;3.17;;;;;;;-143.84;32.21;44854.84;5031086;28;20447;-75
2022/10/01 09:52:36;;;;;;;14.67;3.90;;;;;;;-143.84;32.66;44860.56;5030992;28;20446;-75
2022/10/01 09:55:06;;;;;;;6.57;3.10;;;;;;;-143.84;32.51;44887.22;5030978;28;21087;-75
2022/10/01 09:57:38;;;;;;;4.90;3.40;;;;;;;-143.84;33.49;44875.78;5030887;28;20530;-75
2022/10/01 10:00:08;;;;;;;6.03;3.07;;;;;;;-143.84;33.47;44873.88;5030438;28;20948;-75
2022/10/01 10:02:41;;;;;;;9.37;3.23;;;;;;;-143.84;33.68;44904.34;5030576;28;20906;-75
2022/10/01 10:05:15;;;;;;;3.20;2.90;;;;;;;-143.84;33.51;44889.13;5030496;28;20449;-75
2022/10/01 10:07:46;;;;;;;12.90;4.93;;;;;;;-143.84;34.13;44911.97;5030753;28;20461;-75
2022/10/01 10:10:19;;;;;;;8.60;3.60;;;;;;;-143.84;34.96;44921.50;5029809;28;20894;-75
2022/10/01 10:12:47;;;;;;;4.60;3.80;;;;;;;-143.84;34.05;44900.53;5029161;28;20509;-75
2022/10/01 10:15:18;;;;;;;6.57;3.90;;;;;;;-143.84;34.33;44908.16;5029170;28;20442;-75
2022/10/01 10:17:50;;;;;;;9.87;3.13;;;;;;;-143.84;33.83;44898.66;5029493;28;20439;-75
2022/10/01 10:20:28;;;;;;;4.33;3.27;;;;;;;-143.84;33.40;44892.94;5029283;28;20450;-75
2022/10/01 10:23:06;;;;;;;14.67;3.77;;;;;;;-143.84;34.22;44885.31;5029329;28;20445;-75
2022/10/01 10:25:33;;;;;;;3.40;3.10;;;;;;;-143.84;33.52;44891.03;5029578;28;21136;-75
2022/10/01 10:28:01;;;;;;;3.53;3.00;;;;;;;-143.84;34.63;44898.66;5012129;28;20925;-75
2022/10/01 10:30:29;;;;;;;6.83;3.20;;;;;;;-143.84;33.75;44885.31;5029298;28;20443;-75
2022/10/01 10:33:03;;;;;;;9.73;3.00;;;;;;;-143.84;33.47;44885.31;5029280;28;20443;-75
2022/10/01 10:35:32;;;;;;;7.83;3.80;;;;;;;-143.84;33.80;44904.34;5029543;28;20447;-75
2022/10/01 10:38:01;;;;;;;3.30;3.00;;;;;;;-143.84;33.68;44898.66;5029933;28;20457;-75
2022/10/01 10:40:34;;;;;;;5.90;3.67;;;;;;;-143.84;33.97;44877.69;5030725;28;20429;-75
2022/10/01 10:43:01;;;;;;;11.67;3.50;;;;;;;-143.84;32.93;44871.97;5029120;28;20457;-75
2022/10/01 10:45:34;;;;;;;4.07;3.17;;;;;;;-143.84;33.09;44904.34;5032330;28;20797;-75
2022/10/01 10:48:05;;;;;;;6.73;3.00;;;;;;;-143.84;34.63;44894.84;5033183;28;20500;-75
2022/10/01 10:50:37;;;;;;;4.43;3.47;;;;;;;-143.84;33.54;44892.94;5032500;28;20442;-75
2022/10/01 10:53:20;;;;;;;7.43;3.27;;;;;;;-143.84;33.51;44873.88;5033026;28;20512;-76
2022/10/01 10:55:59;;;;;;;4.23;2.80;;;;;;;-143.84;33.55;44881.50;5032525;28;20439;-75
2022/10/01 10:58:28;;;;;;;4.40;3.20;;;;;;;-143.84;34.54;44889.13;5032820;28;20450;-75
2022/10/01 11:00:59;;;;;;;3.23;2.90;;;;;;;-143.84;32.81;44896.75;5032727;28;20516;-75
2022/10/01 11:03:29;;;;;;;4.20;3.80;;;;;;;-143.84;33.34;44902.44;5032266;28;20453;-75
2022/10/01 11:06:03;;;;;;;3.77;3.40;;;;;;;-143.84;33.62;44856.75;5032212;28;20505;-75
2022/10/01 11:08:32;;;;;;;7.60;3.23;;;;;;;-143.84;33.71;44894.84;5032303;28;20438;-75
2022/10/01 11:11:14;;;;;;;5.67;2.93;;;;;;;-143.84;33.40;44900.53;5031338;28;20490;-75
2022/10/01 11:13:58;;;;;;;4.93;3.77;;;;;;;-143.84;33.30;44908.16;5030566;28;20486;-75
2022/10/01 11:16:47;;;;;;;4.70;3.60;;;;;;;-143.84;33.08;44911.97;5031394;28;20434;-75
2022/10/01 11:19:31;;;;;;;11.00;3.50;;;;;;;-143.84;34.03;44910.06;5031102;28;20854;-75
2022/10/01 11:22:12;;;;;;;5.23;3.33;;;;;;;-143.84;33.97;44910.06;5032685;28;20574;-75
2022/10/01 11:24:57;;;;;;;5.33;2.70;;;;;;;-143.84;33.89;44911.97;5032475;28;20446;-75
2022/10/01 11:27:34;;;;;;;4.17;3.70;;;;;;;-143.84;34.47;44931.00;5028554;28;20450;-75
2022/10/01 11:30:08;;;;;;;11.03;3.60;;;;;;;-143.84;34.43;44904.34;5018228;28;20454;-75
2022/10/01 11:32:40;;;;;;;20.10;12.60;;;;;;;-143.84;34.96;44902.44;5016599;28;20858;-76
2022/10/01 11:35:22;;;;;;;6.83;4.20;;;;;;;-143.84;34.64;44904.34;5021350;28;21380;-76
2022/10/01 11:38:06;;;;;;;5.40;4.10;;;;;;;-143.84;35.04;44923.41;5017835;28;20843;-76
2022/10/01 11:40:39;;;;;;;3.80;3.43;;;;;;;-143.84;34.42;44906.25;5019269;28;20464;-76
2022/10/01 11:43:20;;;;;;;25.07;5.87;;;;;;;-143.84;34.84;44925.31;5022334;28;20835;-76
2022/10/01 11:45:52;;;;;;;6.17;5.03;;;;;;;-143.84;35.18;44946.25;5019465;28;20452;-76
2022/10/01 11:48:25;;;;;;;17.00;6.40;;;;;;;-143.84;35.35;44946.25;5015103;28;20493;-76
2022/10/01 11:50:57;;;;;;;17.87;6.80;;;;;;;-143.84;35.53;44929.09;5016326;28;20462;-75
2022/10/01 11:53:32;;;;;;;6.13;4.43;;;;;;;-143.84;36.17;44953.88;5014219;28;20457;-75
2022/10/01 11:58:54;;;;;;;7.93;3.50;;;;;;;-143.84;35.73;44946.25;5014333;28;20438;-75
2022/10/01 12:01:35;;;;;;;15.33;2.87;;;;;;;-143.84;35.92;44919.59;5018469;28;20591;-75
2022/10/01 12:04:21;;;;;;;6.10;3.50;;;;;;;-143.84;36.37;44932.91;5017665;28;20516;-75
2022/10/01 12:06:56;;;;;;;6.73;3.10;;;;;;;-143.84;36.86;44950.06;5012390;28;20807;-75
2022/10/01 12:09:31;;;;;;;3.13;2.67;;;;;;;-143.84;37.23;44951.97;5012365;28;20467;-75
2022/10/01 12:12:02;;;;;;;3.57;3.20;;;;;;;-143.84;37.12;44917.69;5013901;28;20913;-75
2022/10/01 12:14:38;;;;;;;5.70;3.50;;;;;;;-143.84;37.73;44934.81;5014342;28;20491;-75
2022/10/01 12:17:18;;;;;;;5.47;3.70;;;;;;;-143.84;38.47;44969.09;5019948;28;20484;-75
2022/10/01 12:19:51;;;;;;;5.97;3.57;;;;;;;-143.84;39.01;44948.16;5016682;28;20455;-75
2022/10/01 12:22:24;;;;;;;4.53;3.97;;;;;;;-143.84;39.69;44946.25;5015990;28;20475;-75
2022/10/01 12:24:53;;;;;;;4.57;4.00;;;;;;;-143.84;40.16;44951.97;5018841;28;20438;-75
2022/10/01 12:27:34;;;;;;;12.03;4.00;;;;;;;-143.84;40.17;44971.00;5020648;28;20942;-76
2022/10/01 12:30:05;;;;;;;4.63;3.07;;;;;;;-143.84;39.52;44967.19;5015357;28;20451;-76
2022/10/01 12:32:54;;;;;;;8.53;3.60;;;;;;;-143.84;40.37;44953.88;5019405;28;20447;-76
2022/10/01 12:35:36;;;;;;;6.53;3.60;;;;;;;-143.84;41.35;44976.72;5017399;28;20487;-76
2022/10/01 12:38:18;;;;;;;4.20;3.77;;;;;;;-143.84;42.13;44963.38;5012195;28;20479;-76
2022/10/01 12:40:53;;;;;;;13.80;4.77;;;;;;;-143.84;42.07;44963.38;5011138;28;20451;-76
2022/10/01 12:43:45;;;;;;;4.90;4.20;;;;;;;-143.84;42.82;44961.47;5011869;28;20462;-76
2022/10/01 12:46:23;;;;;;;7.23;4.30;;;;;;;-143.84;44.01;44984.31;5012606;28;20462;-76
2022/10/01 12:49:02;;;;;;;6.40;4.37;;;;;;;-143.84;43.70;44978.63;5014035;28;20517;-76
2022/10/01 12:51:42;;;;;;;4.67;4.27;;;;;;;-143.84;43.42;44988.13;5013811;28;20455;-76
2022/10/01 12:54:26;;;;;;;8.07;4.70;;;;;;;-143.84;43.58;44963.38;5016068;28;20537;-76
2022/10/01 12:57:03;;;;;;;9.70;5.33;;;;;;;-143.84;44.07;44972.91;5011354;28;20907;-76
2022/10/01 12:59:41;;;;;;;8.13;5.37;;;;;;;-143.84;44.67;44953.88;5011648;28;20490;-76
2022/10/01 13:02:29;;;;;;;4.70;3.40;;;;;;;-143.84;43.91;44946.25;5014501;28;20477;-76
2022/10/01 13:05:20;;;;;;;7.77;4.50;;;;;;;-143.84;43.42;44995.75;5009452;28;20463;-73
2022/10/01 13:08:21;;;;;;;9.40;4.67;;;;;;;-143.84;43.34;44976.72;5010832;28;20543;-73
2022/10/01 13:11:01;;;;;;;8.60;5.30;;;;;;;-143.84;44.01;44997.66;4985702;28;20506;-73
2022/10/01 13:13:32;;;;;;;6.53;4.60;;;;;;;-143.84;44.59;44999.56;5010451;28;20538;-73
2022/10/01 13:16:05;;;;;;;3.40;3.10;;;;;;;-143.84;43.08;44959.56;5011360;28;20492;-73
2022/10/01 13:18:45;;;;;;;10.50;4.50;;;;;;;-143.84;45.55;44961.47;5008772;28;20455;-73
2022/10/01 13:21:22;;;;;;;6.90;3.83;;;;;;;-143.84;44.70;44971.00;5009691;28;20909;-73
2022/10/01 13:23:56;;;;;;;7.57;3.27;;;;;;;-143.84;43.30;44974.81;5010714;28;20444;-73
2022/10/01 13:26:30;;;;;;;10.10;3.20;;;;;;;-143.84;44.05;44971.00;5009217;28;20440;-73
2022/10/01 13:29:19;;;;;;;4.73;3.63;;;;;;;-143.84;44.13;44978.63;5008477;28;20486;-73
2022/10/01 13:31:56;;;;;;;6.33;4.07;;;;;;;-143.84;44.49;44971.00;5008742;28;20468;-73
2022/10/01 13:34:44;;;;;;;7.00;4.33;;;;;;;-143.84;45.42;44980.53;5008377;28;20642;-73
2022/10/01 13:37:16;;;;;;;4.47;4.03;;;;;;;-143.84;45.67;44976.72;5011013;28;20500;-73
2022/10/01 13:39:44;;;;;;;12.60;4.60;;;;;;;-143.84;45.81;44990.03;5008249;28;20451;-73
2022/10/01 13:42:23;;;;;;;4.20;3.80;;;;;;;-143.84;44.53;44976.72;5008212;28;20961;-73
2022/10/01 13:44:58;;;;;;;4.57;3.37;;;;;;;-143.84;45.21;44971.00;5008248;28;21000;-73
2022/10/01 13:47:27;;;;;;;4.53;3.83;;;;;;;-143.84;46.72;44986.22;5009002;28;20474;-73